Thomaston, New York
Current Conditions -  °F | °C
As of 10:51 PM on Wednesday 26 Nov 2014 (Local Time) from KLGA Reporting Station
Light Snow Light Snow  
Wind Chill: 25°   Ceiling: 1300
Heat Index: 36°   Visibility: 10mi
Dew Point: 32°   Wind: 21mph
Humidity: 86%   Direction: 350°N
Pressure: 29.8"   Gusts: 29mph
Location:  40.786°N, 73.7291°W
Report Text: KLGA 270351Z 35018G25KT 10SM -RASN BKN013 OVC033 02/00 A2980 RMK AO2 PK WND 33026/0331 SLP091 P0001 T00220000
Loading
Personal Weather Stations






























Interactive Weather Map New forecast layout! Learn more

10-Day Weather Forecast

Advertisements
Track Severe Weather on mobile